sensor_id;sensor_type;location;lat;lon;timestamp;temperature;humidity
25753;DHT22;13600;50.816;4.416;2023-07-22T00:01:17;17.90;99.90
25753;DHT22;13600;50.816;4.416;2023-07-22T00:03:43;17.80;99.90
25753;DHT22;13600;50.816;4.416;2023-07-22T00:06:10;17.80;99.90
25753;DHT22;13600;50.816;4.416;2023-07-22T00:08:36;17.80;99.90
25753;DHT22;13600;50.816;4.416;2023-07-22T00:11:03;17.90;99.90
25753;DHT22;13600;50.816;4.416;2023-07-22T00:13:29;18.00;99.90
25753;DHT22;13600;50.816;4.416;2023-07-22T00:15:55;17.90;99.90
25753;DHT22;13600;50.816;4.416;2023-07-22T00:18:22;17.80;99.90
25753;DHT22;13600;50.816;4.416;2023-07-22T00:20:48;17.80;99.90
25753;DHT22;13600;50.816;4.416;2023-07-22T00:23:13;17.60;99.90
25753;DHT22;13600;50.816;4.416;2023-07-22T00:25:40;17.60;99.90
25753;DHT22;13600;50.816;4.416;2023-07-22T00:28:06;17.60;99.90
25753;DHT22;13600;50.816;4.416;2023-07-22T00:30:32;17.70;99.90
25753;DHT22;13600;50.816;4.416;2023-07-22T00:32:57;17.70;99.90
25753;DHT22;13600;50.816;4.416;2023-07-22T00:35:23;17.60;99.90
25753;DHT22;13600;50.816;4.416;2023-07-22T00:37:48;17.50;99.90
25753;DHT22;13600;50.816;4.416;2023-07-22T00:40:14;17.60;99.90
25753;DHT22;13600;50.816;4.416;2023-07-22T00:42:41;17.70;99.90
25753;DHT22;13600;50.816;4.416;2023-07-22T00:45:07;17.70;99.90
25753;DHT22;13600;50.816;4.416;2023-07-22T00:47:34;17.70;99.90
25753;DHT22;13600;50.816;4.416;2023-07-22T00:50:02;17.70;99.90
25753;DHT22;13600;50.816;4.416;2023-07-22T00:52:28;17.60;99.90
25753;DHT22;13600;50.816;4.416;2023-07-22T00:54:54;17.60;99.90
25753;DHT22;13600;50.816;4.416;2023-07-22T00:57:20;17.60;99.90
25753;DHT22;13600;50.816;4.416;2023-07-22T00:59:46;17.50;99.90
25753;DHT22;13600;50.816;4.416;2023-07-22T01:02:12;17.60;99.90
25753;DHT22;13600;50.816;4.416;2023-07-22T01:04:37;17.40;99.90
25753;DHT22;13600;50.816;4.416;2023-07-22T01:07:07;17.50;99.90
25753;DHT22;13600;50.816;4.416;2023-07-22T01:09:37;17.60;99.90
25753;DHT22;13600;50.816;4.416;2023-07-22T01:12:04;17.60;99.90
25753;DHT22;13600;50.816;4.416;2023-07-22T01:14:35;17.60;99.90
25753;DHT22;13600;50.816;4.416;2023-07-22T01:17:05;17.50;99.90
25753;DHT22;13600;50.816;4.416;2023-07-22T01:19:32;17.30;99.90
25753;DHT22;13600;50.816;4.416;2023-07-22T01:22:00;17.30;99.90
25753;DHT22;13600;50.816;4.416;2023-07-22T01:24:26;17.40;99.90
25753;DHT22;13600;50.816;4.416;2023-07-22T01:26:52;17.10;99.90
25753;DHT22;13600;50.816;4.416;2023-07-22T01:29:18;17.00;99.90
25753;DHT22;13600;50.816;4.416;2023-07-22T01:31:46;17.00;99.90
25753;DHT22;13600;50.816;4.416;2023-07-22T01:34:12;17.00;99.90
25753;DHT22;13600;50.816;4.416;2023-07-22T01:36:38;17.00;99.90
25753;DHT22;13600;50.816;4.416;2023-07-22T01:39:03;17.00;99.90
25753;DHT22;13600;50.816;4.416;2023-07-22T01:41:31;17.00;99.90
25753;DHT22;13600;50.816;4.416;2023-07-22T01:43:57;17.00;99.90
25753;DHT22;13600;50.816;4.416;2023-07-22T01:46:22;17.10;99.90
25753;DHT22;13600;50.816;4.416;2023-07-22T01:48:48;17.00;99.90
25753;DHT22;13600;50.816;4.416;2023-07-22T01:51:13;16.90;99.90
25753;DHT22;13600;50.816;4.416;2023-07-22T01:53:39;16.90;99.90
25753;DHT22;13600;50.816;4.416;2023-07-22T01:56:05;16.80;99.90
25753;DHT22;13600;50.816;4.416;2023-07-22T01:58:31;16.80;99.90
25753;DHT22;13600;50.816;4.416;2023-07-22T02:00:56;16.80;99.90
25753;DHT22;13600;50.816;4.416;2023-07-22T02:03:22;16.80;99.90
25753;DHT22;13600;50.816;4.416;2023-07-22T02:05:47;16.70;99.90
25753;DHT22;13600;50.816;4.416;2023-07-22T02:08:13;16.70;99.90
25753;DHT22;13600;50.816;4.416;2023-07-22T02:10:39;16.80;99.90
25753;DHT22;13600;50.816;4.416;2023-07-22T02:13:05;16.70;99.90
25753;DHT22;13600;50.816;4.416;2023-07-22T02:15:32;16.70;99.90
25753;DHT22;13600;50.816;4.416;2023-07-22T02:17:57;16.60;99.90
25753;DHT22;13600;50.816;4.416;2023-07-22T02:20:24;16.60;99.90
25753;DHT22;13600;50.816;4.416;2023-07-22T02:22:52;16.50;99.90
25753;DHT22;13600;50.816;4.416;2023-07-22T02:25:18;16.70;99.90
25753;DHT22;13600;50.816;4.416;2023-07-22T02:27:43;16.80;99.90
25753;DHT22;13600;50.816;4.416;2023-07-22T02:30:09;16.80;99.90
25753;DHT22;13600;50.816;4.416;2023-07-22T02:32:40;16.70;99.90
25753;DHT22;13600;50.816;4.416;2023-07-22T02:35:07;16.60;99.90
25753;DHT22;13600;50.816;4.416;2023-07-22T02:37:34;16.50;99.90
25753;DHT22;13600;50.816;4.416;2023-07-22T02:40:00;16.40;99.90
25753;DHT22;13600;50.816;4.416;2023-07-22T02:42:25;16.50;99.90
25753;DHT22;13600;50.816;4.416;2023-07-22T02:44:51;16.40;99.90
25753;DHT22;13600;50.816;4.416;2023-07-22T02:47:17;16.40;99.90
25753;DHT22;13600;50.816;4.416;2023-07-22T02:49:43;16.30;99.90
25753;DHT22;13600;50.816;4.416;2023-07-22T02:52:09;16.40;99.90
25753;DHT22;13600;50.816;4.416;2023-07-22T02:54:39;16.40;99.90
25753;DHT22;13600;50.816;4.416;2023-07-22T02:57:05;16.40;99.90
25753;DHT22;13600;50.816;4.416;2023-07-22T02:59:31;16.50;99.90
25753;DHT22;13600;50.816;4.416;2023-07-22T03:01:57;16.30;99.90
25753;DHT22;13600;50.816;4.416;2023-07-22T03:04:23;16.50;99.90
25753;DHT22;13600;50.816;4.416;2023-07-22T03:06:48;16.40;99.90
25753;DHT22;13600;50.816;4.416;2023-07-22T03:09:14;16.30;99.90
25753;DHT22;13600;50.816;4.416;2023-07-22T03:11:40;16.30;99.90
25753;DHT22;13600;50.816;4.416;2023-07-22T03:14:06;16.20;99.90
25753;DHT22;13600;50.816;4.416;2023-07-22T03:16:32;16.20;99.90
25753;DHT22;13600;50.816;4.416;2023-07-22T03:18:57;16.20;99.90
25753;DHT22;13600;50.816;4.416;2023-07-22T03:21:23;16.00;99.90
25753;DHT22;13600;50.816;4.416;2023-07-22T03:23:49;16.00;99.90
25753;DHT22;13600;50.816;4.416;2023-07-22T03:26:14;16.10;99.90
25753;DHT22;13600;50.816;4.416;2023-07-22T03:28:41;16.10;99.90
25753;DHT22;13600;50.816;4.416;2023-07-22T03:31:07;16.20;99.90
25753;DHT22;13600;50.816;4.416;2023-07-22T03:33:33;16.10;99.90
25753;DHT22;13600;50.816;4.416;2023-07-22T03:36:00;16.10;99.90
25753;DHT22;13600;50.816;4.416;2023-07-22T03:38:26;16.20;99.90
25753;DHT22;13600;50.816;4.416;2023-07-22T03:40:51;16.20;99.90
25753;DHT22;13600;50.816;4.416;2023-07-22T03:43:20;16.30;99.90
25753;DHT22;13600;50.816;4.416;2023-07-22T03:45:45;16.40;99.90
25753;DHT22;13600;50.816;4.416;2023-07-22T03:48:11;16.40;99.90
25753;DHT22;13600;50.816;4.416;2023-07-22T03:50:36;16.20;99.90
25753;DHT22;13600;50.816;4.416;2023-07-22T03:53:02;16.20;99.90
25753;DHT22;13600;50.816;4.416;2023-07-22T03:55:28;16.10;99.90
25753;DHT22;13600;50.816;4.416;2023-07-22T03:57:53;16.10;99.90
25753;DHT22;13600;50.816;4.416;2023-07-22T04:00:20;16.30;99.90
25753;DHT22;13600;50.816;4.416;2023-07-22T04:02:46;16.20;99.90
25753;DHT22;13600;50.816;4.416;2023-07-22T04:05:12;16.10;99.90
25753;DHT22;13600;50.816;4.416;2023-07-22T04:07:38;16.10;99.90
25753;DHT22;13600;50.816;4.416;2023-07-22T04:10:05;16.00;99.90
25753;DHT22;13600;50.816;4.416;2023-07-22T04:12:30;16.00;99.90
25753;DHT22;13600;50.816;4.416;2023-07-22T04:14:56;16.00;99.90
25753;DHT22;13600;50.816;4.416;2023-07-22T04:17:22;16.10;99.90
25753;DHT22;13600;50.816;4.416;2023-07-22T04:19:48;16.20;99.90
25753;DHT22;13600;50.816;4.416;2023-07-22T04:22:13;16.20;99.90
25753;DHT22;13600;50.816;4.416;2023-07-22T04:24:39;16.30;99.90
25753;DHT22;13600;50.816;4.416;2023-07-22T04:27:05;16.30;99.90
25753;DHT22;13600;50.816;4.416;2023-07-22T04:29:30;16.40;99.90
25753;DHT22;13600;50.816;4.416;2023-07-22T04:32:00;16.30;99.90
25753;DHT22;13600;50.816;4.416;2023-07-22T04:34:32;16.40;99.90
25753;DHT22;13600;50.816;4.416;2023-07-22T04:36:58;16.30;99.90
25753;DHT22;13600;50.816;4.416;2023-07-22T04:39:24;16.30;99.90
25753;DHT22;13600;50.816;4.416;2023-07-22T04:41:50;16.30;99.90
25753;DHT22;13600;50.816;4.416;2023-07-22T04:44:17;16.40;99.90
25753;DHT22;13600;50.816;4.416;2023-07-22T04:46:43;16.40;99.90
25753;DHT22;13600;50.816;4.416;2023-07-22T04:49:08;16.40;99.90
25753;DHT22;13600;50.816;4.416;2023-07-22T04:51:34;16.50;99.90
25753;DHT22;13600;50.816;4.416;2023-07-22T04:53:59;16.50;99.90
25753;DHT22;13600;50.816;4.416;2023-07-22T04:56:25;16.50;99.90
25753;DHT22;13600;50.816;4.416;2023-07-22T04:58:51;16.50;99.90
25753;DHT22;13600;50.816;4.416;2023-07-22T05:01:16;16.50;99.90
25753;DHT22;13600;50.816;4.416;2023-07-22T05:03:42;16.40;99.90
25753;DHT22;13600;50.816;4.416;2023-07-22T05:06:08;16.40;99.90
25753;DHT22;13600;50.816;4.416;2023-07-22T05:08:34;16.40;99.90
25753;DHT22;13600;50.816;4.416;2023-07-22T05:11:00;16.30;99.90
25753;DHT22;13600;50.816;4.416;2023-07-22T05:13:25;16.30;99.90
25753;DHT22;13600;50.816;4.416;2023-07-22T05:15:51;16.20;99.90
25753;DHT22;13600;50.816;4.416;2023-07-22T05:18:16;16.30;99.90
25753;DHT22;13600;50.816;4.416;2023-07-22T05:20:42;16.30;99.90
25753;DHT22;13600;50.816;4.416;2023-07-22T05:23:08;16.30;99.90
25753;DHT22;13600;50.816;4.416;2023-07-22T05:25:33;16.30;99.90
25753;DHT22;13600;50.816;4.416;2023-07-22T05:27:59;16.30;99.90
25753;DHT22;13600;50.816;4.416;2023-07-22T05:30:24;16.20;99.90
25753;DHT22;13600;50.816;4.416;2023-07-22T05:32:53;16.40;99.90
25753;DHT22;13600;50.816;4.416;2023-07-22T05:35:18;16.60;99.90
25753;DHT22;13600;50.816;4.416;2023-07-22T05:37:44;16.70;99.90
25753;DHT22;13600;50.816;4.416;2023-07-22T05:40:10;16.90;99.90
25753;DHT22;13600;50.816;4.416;2023-07-22T05:42:36;17.00;99.90
25753;DHT22;13600;50.816;4.416;2023-07-22T05:45:02;17.10;99.90
25753;DHT22;13600;50.816;4.416;2023-07-22T05:47:28;17.10;99.90
25753;DHT22;13600;50.816;4.416;2023-07-22T05:49:54;17.20;99.90
25753;DHT22;13600;50.816;4.416;2023-07-22T05:52:20;17.30;99.90
25753;DHT22;13600;50.816;4.416;2023-07-22T05:54:45;17.30;99.90
25753;DHT22;13600;50.816;4.416;2023-07-22T05:57:11;17.40;99.90
25753;DHT22;13600;50.816;4.416;2023-07-22T05:59:36;17.50;99.90
25753;DHT22;13600;50.816;4.416;2023-07-22T06:02:03;17.40;99.90
25753;DHT22;13600;50.816;4.416;2023-07-22T06:04:29;17.60;99.90
25753;DHT22;13600;50.816;4.416;2023-07-22T06:06:55;17.80;99.90
25753;DHT22;13600;50.816;4.416;2023-07-22T06:09:20;17.70;99.90
25753;DHT22;13600;50.816;4.416;2023-07-22T06:11:46;17.70;99.90
25753;DHT22;13600;50.816;4.416;2023-07-22T06:14:12;17.70;99.90
25753;DHT22;13600;50.816;4.416;2023-07-22T06:16:37;17.70;99.90
25753;DHT22;13600;50.816;4.416;2023-07-22T06:19:04;17.70;99.90
25753;DHT22;13600;50.816;4.416;2023-07-22T06:21:30;17.80;99.90
25753;DHT22;13600;50.816;4.416;2023-07-22T06:23:55;17.80;99.90
25753;DHT22;13600;50.816;4.416;2023-07-22T06:26:21;17.90;99.90
25753;DHT22;13600;50.816;4.416;2023-07-22T06:28:47;18.00;99.90
25753;DHT22;13600;50.816;4.416;2023-07-22T06:31:13;18.00;99.90
25753;DHT22;13600;50.816;4.416;2023-07-22T06:33:38;17.80;99.90
25753;DHT22;13600;50.816;4.416;2023-07-22T06:36:05;17.90;99.90
25753;DHT22;13600;50.816;4.416;2023-07-22T06:38:30;17.90;99.90
25753;DHT22;13600;50.816;4.416;2023-07-22T06:40:56;17.90;99.90
25753;DHT22;13600;50.816;4.416;2023-07-22T06:43:22;17.90;99.90
25753;DHT22;13600;50.816;4.416;2023-07-22T06:45:48;18.00;99.90
25753;DHT22;13600;50.816;4.416;2023-07-22T06:48:14;18.00;99.90
25753;DHT22;13600;50.816;4.416;2023-07-22T06:50:39;18.20;99.90
25753;DHT22;13600;50.816;4.416;2023-07-22T06:53:05;18.20;99.90
25753;DHT22;13600;50.816;4.416;2023-07-22T06:55:30;18.40;99.90
25753;DHT22;13600;50.816;4.416;2023-07-22T06:57:56;18.60;99.90
25753;DHT22;13600;50.816;4.416;2023-07-22T07:00:22;18.70;99.90
25753;DHT22;13600;50.816;4.416;2023-07-22T07:02:47;18.90;99.90
25753;DHT22;13600;50.816;4.416;2023-07-22T07:05:13;18.90;99.90
25753;DHT22;13600;50.816;4.416;2023-07-22T07:07:39;19.20;99.90
25753;DHT22;13600;50.816;4.416;2023-07-22T07:10:06;19.30;99.90
25753;DHT22;13600;50.816;4.416;2023-07-22T07:12:32;19.40;99.90
25753;DHT22;13600;50.816;4.416;2023-07-22T07:14:58;19.50;99.90
25753;DHT22;13600;50.816;4.416;2023-07-22T07:17:23;19.50;99.90
25753;DHT22;13600;50.816;4.416;2023-07-22T07:19:49;19.30;99.90
25753;DHT22;13600;50.816;4.416;2023-07-22T07:22:14;19.40;99.90
25753;DHT22;13600;50.816;4.416;2023-07-22T07:24:40;19.50;99.90
25753;DHT22;13600;50.816;4.416;2023-07-22T07:27:06;19.60;99.90
25753;DHT22;13600;50.816;4.416;2023-07-22T07:29:31;19.90;99.90
25753;DHT22;13600;50.816;4.416;2023-07-22T07:31:57;20.10;99.90
25753;DHT22;13600;50.816;4.416;2023-07-22T07:34:22;19.90;99.90
25753;DHT22;13600;50.816;4.416;2023-07-22T07:36:48;19.90;99.90
25753;DHT22;13600;50.816;4.416;2023-07-22T07:39:14;20.00;99.90
25753;DHT22;13600;50.816;4.416;2023-07-22T07:41:39;20.20;99.90
25753;DHT22;13600;50.816;4.416;2023-07-22T07:44:05;20.60;99.90
25753;DHT22;13600;50.816;4.416;2023-07-22T07:46:31;20.70;99.90
25753;DHT22;13600;50.816;4.416;2023-07-22T07:48:58;20.70;99.90
25753;DHT22;13600;50.816;4.416;2023-07-22T07:51:28;20.90;99.90
25753;DHT22;13600;50.816;4.416;2023-07-22T07:53:55;21.00;99.90
25753;DHT22;13600;50.816;4.416;2023-07-22T07:56:21;21.40;99.90
25753;DHT22;13600;50.816;4.416;2023-07-22T07:58:49;21.60;99.90
25753;DHT22;13600;50.816;4.416;2023-07-22T08:01:16;21.40;99.90
25753;DHT22;13600;50.816;4.416;2023-07-22T08:03:42;21.50;99.90
25753;DHT22;13600;50.816;4.416;2023-07-22T08:06:09;21.50;99.90
25753;DHT22;13600;50.816;4.416;2023-07-22T08:08:35;21.20;99.90
25753;DHT22;13600;50.816;4.416;2023-07-22T08:11:07;20.80;99.90
25753;DHT22;13600;50.816;4.416;2023-07-22T08:13:36;20.70;99.90
25753;DHT22;13600;50.816;4.416;2023-07-22T08:16:04;20.60;99.90
25753;DHT22;13600;50.816;4.416;2023-07-22T08:18:30;20.70;99.90
25753;DHT22;13600;50.816;4.416;2023-07-22T08:20:57;20.80;99.90
25753;DHT22;13600;50.816;4.416;2023-07-22T08:23:23;20.80;99.90
25753;DHT22;13600;50.816;4.416;2023-07-22T08:25:49;20.80;99.90
25753;DHT22;13600;50.816;4.416;2023-07-22T08:28:15;20.40;99.90
25753;DHT22;13600;50.816;4.416;2023-07-22T08:30:41;20.50;99.90
25753;DHT22;13600;50.816;4.416;2023-07-22T08:33:08;20.90;99.90
25753;DHT22;13600;50.816;4.416;2023-07-22T08:35:34;21.60;99.90
25753;DHT22;13600;50.816;4.416;2023-07-22T08:38:00;21.90;99.90
25753;DHT22;13600;50.816;4.416;2023-07-22T08:40:32;22.60;99.90
25753;DHT22;13600;50.816;4.416;2023-07-22T08:42:57;23.40;99.90
25753;DHT22;13600;50.816;4.416;2023-07-22T08:45:28;24.00;99.90
25753;DHT22;13600;50.816;4.416;2023-07-22T08:47:57;23.40;99.90
25753;DHT22;13600;50.816;4.416;2023-07-22T08:50:29;23.40;99.90
25753;DHT22;13600;50.816;4.416;2023-07-22T08:52:55;22.80;99.90
25753;DHT22;13600;50.816;4.416;2023-07-22T08:55:22;22.70;99.90
25753;DHT22;13600;50.816;4.416;2023-07-22T08:57:48;22.80;99.90
25753;DHT22;13600;50.816;4.416;2023-07-22T09:00:14;23.50;99.90
25753;DHT22;13600;50.816;4.416;2023-07-22T09:02:41;25.00;99.90
25753;DHT22;13600;50.816;4.416;2023-07-22T09:05:07;26.70;99.90
25753;DHT22;13600;50.816;4.416;2023-07-22T09:07:35;27.40;99.90
25753;DHT22;13600;50.816;4.416;2023-07-22T09:10:01;28.60;99.90
25753;DHT22;13600;50.816;4.416;2023-07-22T09:12:28;29.00;99.30
25753;DHT22;13600;50.816;4.416;2023-07-22T09:14:54;29.40;97.10
25753;DHT22;13600;50.816;4.416;2023-07-22T09:17:19;29.20;95.10
25753;DHT22;13600;50.816;4.416;2023-07-22T09:19:45;29.20;95.50
25753;DHT22;13600;50.816;4.416;2023-07-22T09:22:11;29.30;95.20
25753;DHT22;13600;50.816;4.416;2023-07-22T09:24:36;28.70;93.70
25753;DHT22;13600;50.816;4.416;2023-07-22T09:27:02;27.90;94.20
25753;DHT22;13600;50.816;4.416;2023-07-22T09:29:33;27.00;95.70
25753;DHT22;13600;50.816;4.416;2023-07-22T09:31:59;26.80;96.10
25753;DHT22;13600;50.816;4.416;2023-07-22T09:34:25;27.10;96.70
25753;DHT22;13600;50.816;4.416;2023-07-22T09:36:56;28.80;94.60
25753;DHT22;13600;50.816;4.416;2023-07-22T09:39:23;30.60;90.80
25753;DHT22;13600;50.816;4.416;2023-07-22T09:41:49;31.20;84.40
25753;DHT22;13600;50.816;4.416;2023-07-22T09:44:15;31.60;83.90
25753;DHT22;13600;50.816;4.416;2023-07-22T09:46:41;32.40;80.90
25753;DHT22;13600;50.816;4.416;2023-07-22T09:49:08;32.70;77.60
25753;DHT22;13600;50.816;4.416;2023-07-22T09:51:35;33.50;73.40
25753;DHT22;13600;50.816;4.416;2023-07-22T09:54:02;32.30;71.20
25753;DHT22;13600;50.816;4.416;2023-07-22T09:56:29;31.40;71.90
25753;DHT22;13600;50.816;4.416;2023-07-22T09:58:55;30.80;73.90
25753;DHT22;13600;50.816;4.416;2023-07-22T10:01:23;31.60;75.40
25753;DHT22;13600;50.816;4.416;2023-07-22T10:03:54;32.80;72.70
25753;DHT22;13600;50.816;4.416;2023-07-22T10:06:27;33.20;67.50
25753;DHT22;13600;50.816;4.416;2023-07-22T10:08:55;33.10;67.30
25753;DHT22;13600;50.816;4.416;2023-07-22T10:11:23;31.60;69.50
25753;DHT22;13600;50.816;4.416;2023-07-22T10:13:51;31.40;69.40
25753;DHT22;13600;50.816;4.416;2023-07-22T10:16:18;32.50;67.10
25753;DHT22;13600;50.816;4.416;2023-07-22T10:18:45;32.00;67.60
25753;DHT22;13600;50.816;4.416;2023-07-22T10:21:12;31.90;66.40
25753;DHT22;13600;50.816;4.416;2023-07-22T10:23:38;32.10;65.10
25753;DHT22;13600;50.816;4.416;2023-07-22T10:26:05;31.80;65.00
25753;DHT22;13600;50.816;4.416;2023-07-22T10:28:31;32.50;64.50
25753;DHT22;13600;50.816;4.416;2023-07-22T10:30:58;33.70;63.00
25753;DHT22;13600;50.816;4.416;2023-07-22T10:33:24;33.40;60.50
25753;DHT22;13600;50.816;4.416;2023-07-22T10:36:07;32.30;60.60
25753;DHT22;13600;50.816;4.416;2023-07-22T10:38:35;32.50;60.80
25753;DHT22;13600;50.816;4.416;2023-07-22T10:41:09;32.80;60.10
25753;DHT22;13600;50.816;4.416;2023-07-22T10:43:42;32.90;58.70
25753;DHT22;13600;50.816;4.416;2023-07-22T10:46:12;31.70;60.00
25753;DHT22;13600;50.816;4.416;2023-07-22T10:48:42;31.40;61.50
25753;DHT22;13600;50.816;4.416;2023-07-22T10:51:10;30.40;62.10
25753;DHT22;13600;50.816;4.416;2023-07-22T10:53:44;28.70;66.40
25753;DHT22;13600;50.816;4.416;2023-07-22T10:56:14;29.60;66.60
25753;DHT22;13600;50.816;4.416;2023-07-22T11:04:12;29.60;68.00
25753;DHT22;13600;50.816;4.416;2023-07-22T11:14:30;33.20;62.80
25753;DHT22;13600;50.816;4.416;2023-07-22T11:17:01;33.90;59.70
25753;DHT22;13600;50.816;4.416;2023-07-22T11:19:29;32.90;61.40
25753;DHT22;13600;50.816;4.416;2023-07-22T11:21:55;32.70;60.10
25753;DHT22;13600;50.816;4.416;2023-07-22T11:24:21;31.70;61.50
25753;DHT22;13600;50.816;4.416;2023-07-22T11:26:48;31.00;63.10
25753;DHT22;13600;50.816;4.416;2023-07-22T11:29:15;31.30;62.10
25753;DHT22;13600;50.816;4.416;2023-07-22T11:31:43;31.70;61.30
25753;DHT22;13600;50.816;4.416;2023-07-22T11:34:14;32.30;60.70
25753;DHT22;13600;50.816;4.416;2023-07-22T11:36:40;33.50;59.10
25753;DHT22;13600;50.816;4.416;2023-07-22T11:39:14;32.90;59.40
25753;DHT22;13600;50.816;4.416;2023-07-22T11:41:40;34.10;58.10
25753;DHT22;13600;50.816;4.416;2023-07-22T11:44:10;35.00;57.60
25753;DHT22;13600;50.816;4.416;2023-07-22T11:46:57;35.00;56.90
25753;DHT22;13600;50.816;4.416;2023-07-22T11:49:32;34.70;56.70
25753;DHT22;13600;50.816;4.416;2023-07-22T11:52:00;32.80;57.30
25753;DHT22;13600;50.816;4.416;2023-07-22T11:54:26;32.40;57.90
25753;DHT22;13600;50.816;4.416;2023-07-22T11:56:52;32.90;57.60
25753;DHT22;13600;50.816;4.416;2023-07-22T11:59:36;34.20;57.10
25753;DHT22;13600;50.816;4.416;2023-07-22T12:02:03;35.00;56.50
25753;DHT22;13600;50.816;4.416;2023-07-22T12:04:34;35.40;54.70
25753;DHT22;13600;50.816;4.416;2023-07-22T12:07:00;36.30;54.40
25753;DHT22;13600;50.816;4.416;2023-07-22T12:09:26;36.00;52.50
25753;DHT22;13600;50.816;4.416;2023-07-22T12:12:00;35.30;53.00
25753;DHT22;13600;50.816;4.416;2023-07-22T12:14:35;34.50;53.70
25753;DHT22;13600;50.816;4.416;2023-07-22T12:17:01;32.80;55.80
25753;DHT22;13600;50.816;4.416;2023-07-22T12:19:30;32.30;57.40
25753;DHT22;13600;50.816;4.416;2023-07-22T12:21:56;32.00;57.60
25753;DHT22;13600;50.816;4.416;2023-07-22T12:24:21;31.40;56.70
25753;DHT22;13600;50.816;4.416;2023-07-22T12:26:47;31.30;58.60
25753;DHT22;13600;50.816;4.416;2023-07-22T12:29:12;32.10;57.70
25753;DHT22;13600;50.816;4.416;2023-07-22T12:31:38;32.50;56.80
25753;DHT22;13600;50.816;4.416;2023-07-22T12:34:04;32.90;56.10
25753;DHT22;13600;50.816;4.416;2023-07-22T12:36:29;31.90;57.30
25753;DHT22;13600;50.816;4.416;2023-07-22T12:38:55;30.90;58.10
25753;DHT22;13600;50.816;4.416;2023-07-22T12:41:21;30.00;59.10
25753;DHT22;13600;50.816;4.416;2023-07-22T12:43:46;30.60;60.20
25753;DHT22;13600;50.816;4.416;2023-07-22T12:46:13;30.50;57.60
25753;DHT22;13600;50.816;4.416;2023-07-22T12:48:39;30.10;58.40
25753;DHT22;13600;50.816;4.416;2023-07-22T12:51:04;30.10;59.90
25753;DHT22;13600;50.816;4.416;2023-07-22T12:53:31;31.00;57.90
25753;DHT22;13600;50.816;4.416;2023-07-22T12:55:56;32.50;56.10
25753;DHT22;13600;50.816;4.416;2023-07-22T12:58:22;33.60;55.40
25753;DHT22;13600;50.816;4.416;2023-07-22T13:00:48;34.30;53.90
25753;DHT22;13600;50.816;4.416;2023-07-22T13:03:14;33.90;53.40
25753;DHT22;13600;50.816;4.416;2023-07-22T13:05:39;33.60;54.00
25753;DHT22;13600;50.816;4.416;2023-07-22T13:08:06;33.10;54.50
25753;DHT22;13600;50.816;4.416;2023-07-22T13:10:32;32.30;56.00
25753;DHT22;13600;50.816;4.416;2023-07-22T13:12:59;30.90;56.50
25753;DHT22;13600;50.816;4.416;2023-07-22T13:15:25;30.50;57.00
25753;DHT22;13600;50.816;4.416;2023-07-22T13:17:51;29.50;58.30
25753;DHT22;13600;50.816;4.416;2023-07-22T13:20:17;29.00;60.00
25753;DHT22;13600;50.816;4.416;2023-07-22T13:22:43;28.30;60.50
25753;DHT22;13600;50.816;4.416;2023-07-22T13:25:08;27.70;62.30
25753;DHT22;13600;50.816;4.416;2023-07-22T13:27:37;27.40;63.30
25753;DHT22;13600;50.816;4.416;2023-07-22T13:30:08;27.10;64.40
25753;DHT22;13600;50.816;4.416;2023-07-22T13:32:34;27.20;64.80
25753;DHT22;13600;50.816;4.416;2023-07-22T13:34:59;27.50;64.50
25753;DHT22;13600;50.816;4.416;2023-07-22T13:37:26;27.80;64.70
25753;DHT22;13600;50.816;4.416;2023-07-22T13:39:52;28.10;63.60
25753;DHT22;13600;50.816;4.416;2023-07-22T13:42:18;28.50;62.40
25753;DHT22;13600;50.816;4.416;2023-07-22T13:44:44;28.40;63.50
25753;DHT22;13600;50.816;4.416;2023-07-22T13:47:10;28.80;63.30
25753;DHT22;13600;50.816;4.416;2023-07-22T13:49:35;29.00;61.60
25753;DHT22;13600;50.816;4.416;2023-07-22T13:52:01;28.30;63.20
25753;DHT22;13600;50.816;4.416;2023-07-22T13:54:26;27.60;64.60
25753;DHT22;13600;50.816;4.416;2023-07-22T13:56:52;26.70;66.10
25753;DHT22;13600;50.816;4.416;2023-07-22T13:59:18;26.10;68.00
25753;DHT22;13600;50.816;4.416;2023-07-22T14:01:44;25.80;69.20
25753;DHT22;13600;50.816;4.416;2023-07-22T14:04:10;25.60;71.00
25753;DHT22;13600;50.816;4.416;2023-07-22T14:06:36;25.20;71.10
25753;DHT22;13600;50.816;4.416;2023-07-22T14:09:02;24.90;73.00
25753;DHT22;13600;50.816;4.416;2023-07-22T14:11:27;24.80;73.60
25753;DHT22;13600;50.816;4.416;2023-07-22T14:13:53;24.90;73.70
25753;DHT22;13600;50.816;4.416;2023-07-22T14:16:18;24.90;73.70
25753;DHT22;13600;50.816;4.416;2023-07-22T14:18:44;24.80;74.40
25753;DHT22;13600;50.816;4.416;2023-07-22T14:21:10;24.70;74.50
25753;DHT22;13600;50.816;4.416;2023-07-22T14:23:37;24.40;75.20
25753;DHT22;13600;50.816;4.416;2023-07-22T14:26:02;24.50;76.40
25753;DHT22;13600;50.816;4.416;2023-07-22T14:28:28;24.30;78.00
25753;DHT22;13600;50.816;4.416;2023-07-22T14:30:53;24.40;77.70
25753;DHT22;13600;50.816;4.416;2023-07-22T14:33:19;24.40;77.00
25753;DHT22;13600;50.816;4.416;2023-07-22T14:35:45;24.50;77.60
25753;DHT22;13600;50.816;4.416;2023-07-22T14:38:10;24.80;78.20
25753;DHT22;13600;50.816;4.416;2023-07-22T14:40:36;25.00;77.60
25753;DHT22;13600;50.816;4.416;2023-07-22T14:43:02;25.20;78.10
25753;DHT22;13600;50.816;4.416;2023-07-22T14:45:29;25.90;76.60
25753;DHT22;13600;50.816;4.416;2023-07-22T14:47:54;26.30;75.70
25753;DHT22;13600;50.816;4.416;2023-07-22T14:50:20;26.40;74.20
25753;DHT22;13600;50.816;4.416;2023-07-22T14:52:46;26.60;75.00
25753;DHT22;13600;50.816;4.416;2023-07-22T14:55:11;26.90;73.80
25753;DHT22;13600;50.816;4.416;2023-07-22T14:57:37;27.00;75.10
25753;DHT22;13600;50.816;4.416;2023-07-22T15:00:03;27.60;74.80
25753;DHT22;13600;50.816;4.416;2023-07-22T15:02:29;28.00;72.40
25753;DHT22;13600;50.816;4.416;2023-07-22T15:04:54;28.40;72.20
25753;DHT22;13600;50.816;4.416;2023-07-22T15:07:22;28.60;71.30
25753;DHT22;13600;50.816;4.416;2023-07-22T15:09:47;28.70;70.90
25753;DHT22;13600;50.816;4.416;2023-07-22T15:12:13;28.60;71.50
25753;DHT22;13600;50.816;4.416;2023-07-22T15:14:38;28.10;71.10
25753;DHT22;13600;50.816;4.416;2023-07-22T15:17:04;27.60;71.30
25753;DHT22;13600;50.816;4.416;2023-07-22T15:19:31;27.00;73.10
25753;DHT22;13600;50.816;4.416;2023-07-22T15:21:56;26.40;74.40
25753;DHT22;13600;50.816;4.416;2023-07-22T15:24:22;26.10;75.70
25753;DHT22;13600;50.816;4.416;2023-07-22T15:26:47;25.90;77.00
25753;DHT22;13600;50.816;4.416;2023-07-22T15:29:13;26.00;77.40
25753;DHT22;13600;50.816;4.416;2023-07-22T15:31:39;25.80;76.60
25753;DHT22;13600;50.816;4.416;2023-07-22T15:34:05;25.70;77.70
25753;DHT22;13600;50.816;4.416;2023-07-22T15:36:30;25.70;78.40
25753;DHT22;13600;50.816;4.416;2023-07-22T15:38:56;25.60;78.30